createdAt,value
2023-03-16T00:00:14.132Z,11.23
2023-03-16T00:02:43.750Z,11.73
2023-03-16T00:05:15.158Z,11.20
2023-03-16T00:07:44.280Z,11.23
2023-03-16T00:10:14.276Z,11.17
2023-03-16T00:12:43.716Z,11.87
2023-03-16T00:15:13.018Z,11.20
2023-03-16T00:17:41.359Z,10.80
2023-03-16T00:20:12.557Z,11.00
2023-03-16T00:22:43.016Z,10.60
2023-03-16T00:25:12.449Z,11.23
2023-03-16T00:27:41.468Z,11.40
2023-03-16T00:30:12.512Z,10.60
2023-03-16T00:32:41.826Z,10.80
2023-03-16T00:35:10.813Z,11.27
2023-03-16T00:37:39.782Z,10.60
2023-03-16T00:40:13.660Z,10.83
2023-03-16T00:42:42.019Z,10.60
2023-03-16T00:45:12.108Z,10.90
2023-03-16T00:47:40.434Z,11.33
2023-03-16T00:50:09.674Z,11.10
2023-03-16T00:52:38.067Z,10.93
2023-03-16T00:55:08.601Z,11.00
2023-03-16T00:57:38.438Z,11.47
2023-03-16T01:00:13.022Z,11.90
2023-03-16T01:02:42.177Z,10.70
2023-03-16T01:05:12.602Z,11.33
2023-03-16T01:07:41.348Z,11.20
2023-03-16T01:10:12.857Z,11.30
2023-03-16T01:12:45.577Z,11.70
2023-03-16T01:15:14.329Z,11.60
2023-03-16T01:17:42.773Z,11.00
2023-03-16T01:20:15.640Z,11.17
2023-03-16T01:22:44.041Z,10.97
2023-03-16T01:25:13.575Z,10.90
2023-03-16T01:27:44.614Z,11.07
2023-03-16T01:30:14.165Z,10.97
2023-03-16T01:32:43.442Z,11.67
2023-03-16T01:35:14.918Z,10.93
2023-03-16T01:37:43.250Z,10.70
2023-03-16T01:40:18.032Z,11.53
2023-03-16T01:42:49.596Z,11.47
2023-03-16T01:46:14.302Z,11.00
2023-03-16T01:48:53.600Z,11.13
2023-03-16T01:51:29.667Z,10.70
2023-03-16T01:54:04.872Z,11.60
2023-03-16T01:56:41.786Z,10.90
2023-03-16T01:59:17.930Z,11.00
2023-03-16T02:01:49.163Z,12.27
2023-03-16T02:04:42.315Z,11.17
2023-03-16T02:07:13.146Z,11.40
2023-03-16T02:09:46.341Z,11.33
2023-03-16T02:12:18.509Z,11.10
2023-03-16T02:14:53.515Z,11.40
2023-03-16T02:17:25.345Z,10.80
2023-03-16T02:20:11.095Z,11.20
2023-03-16T02:22:44.442Z,11.33
2023-03-16T02:25:16.626Z,10.90
2023-03-16T02:27:54.466Z,11.40
2023-03-16T02:30:24.572Z,11.20
2023-03-16T02:32:58.671Z,11.23
2023-03-16T02:35:27.136Z,10.90
2023-03-16T02:37:55.553Z,11.43
2023-03-16T02:40:32.493Z,12.30
2023-03-16T02:43:08.406Z,11.37
2023-03-16T02:45:47.824Z,11.00
2023-03-16T02:48:23.730Z,11.13
2023-03-16T02:50:54.876Z,10.80
2023-03-16T02:53:23.728Z,10.80
2023-03-16T02:55:52.476Z,11.67
2023-03-16T02:58:21.404Z,11.67
2023-03-16T03:00:51.220Z,10.70
2023-03-16T03:03:19.965Z,11.00
2023-03-16T03:05:48.514Z,12.03
2023-03-16T03:08:17.411Z,11.87
2023-03-16T03:10:46.765Z,11.20
2023-03-16T03:13:15.222Z,11.67
2023-03-16T03:15:43.810Z,12.07
2023-03-16T03:18:14.660Z,11.63
2023-03-16T03:20:43.259Z,12.27
2023-03-16T03:23:12.144Z,11.80
2023-03-16T03:25:43.167Z,11.27
2023-03-16T03:28:12.480Z,11.77
2023-03-16T03:30:42.717Z,11.10
2023-03-16T03:33:11.299Z,11.37
2023-03-16T03:35:42.125Z,11.13
2023-03-16T03:38:11.604Z,11.53
2023-03-16T03:40:40.486Z,11.90
2023-03-16T03:43:08.801Z,11.50
2023-03-16T03:45:41.263Z,11.33
2023-03-16T03:48:09.728Z,10.80
2023-03-16T03:50:38.570Z,10.90
2023-03-16T03:53:27.160Z,11.10
2023-03-16T03:56:28.028Z,11.10
2023-03-16T03:58:56.668Z,11.70
2023-03-16T04:01:53.790Z,11.10
2023-03-16T04:04:24.446Z,10.90
2023-03-16T04:06:53.528Z,11.50
2023-03-16T04:09:25.272Z,11.10
2023-03-16T04:11:53.666Z,11.10
2023-03-16T04:14:21.977Z,11.53
2023-03-16T04:16:50.357Z,11.43
2023-03-16T04:19:18.908Z,12.27
2023-03-16T04:21:47.499Z,11.47
2023-03-16T04:24:15.865Z,11.87
2023-03-16T04:26:46.957Z,11.07
2023-03-16T04:29:18.278Z,11.00
2023-03-16T04:31:47.841Z,11.00
2023-03-16T04:34:16.599Z,11.50
2023-03-16T04:36:45.108Z,11.30
2023-03-16T04:39:13.812Z,11.90
2023-03-16T04:41:42.201Z,10.90
2023-03-16T04:44:17.517Z,11.87
2023-03-16T04:46:46.193Z,11.30
2023-03-16T04:49:15.086Z,11.20
2023-03-16T04:51:46.305Z,11.20
2023-03-16T04:54:18.644Z,11.13
2023-03-16T04:56:47.061Z,11.90
2023-03-16T04:59:30.072Z,11.10
2023-03-16T05:02:17.772Z,11.37
2023-03-16T05:04:46.086Z,12.30
2023-03-16T05:07:14.463Z,11.73
2023-03-16T05:09:49.345Z,11.50
2023-03-16T05:12:17.826Z,12.07
2023-03-16T05:14:49.231Z,11.53
2023-03-16T05:17:43.032Z,11.20
2023-03-16T05:20:26.024Z,11.87
2023-03-16T05:22:57.462Z,12.13
2023-03-16T05:25:29.386Z,12.90
2023-03-16T05:28:00.170Z,11.70
2023-03-16T05:30:46.312Z,11.80
2023-03-16T05:33:19.151Z,11.70
2023-03-16T05:35:52.594Z,11.67
2023-03-16T05:38:21.556Z,11.63
2023-03-16T05:40:53.106Z,11.70
2023-03-16T05:43:34.397Z,11.90
2023-03-16T05:46:04.832Z,11.70
2023-03-16T05:48:35.712Z,12.13
2023-03-16T05:51:06.077Z,11.57
2023-03-16T05:53:35.542Z,11.70
2023-03-16T05:56:14.211Z,11.43
2023-03-16T05:58:44.959Z,11.70
2023-03-16T06:01:15.644Z,11.43
2023-03-16T06:03:44.997Z,11.83
2023-03-16T06:06:19.442Z,11.80
2023-03-16T06:08:56.776Z,11.80
2023-03-16T06:11:27.513Z,11.73
2023-03-16T06:13:57.932Z,12.43
2023-03-16T06:16:28.158Z,11.70
2023-03-16T06:18:59.669Z,11.50
2023-03-16T06:21:29.317Z,12.33
2023-03-16T06:24:03.591Z,11.87
2023-03-16T06:26:31.928Z,11.43
2023-03-16T06:29:00.476Z,12.43
2023-03-16T06:31:30.353Z,11.10
2023-03-16T06:33:58.609Z,12.10
2023-03-16T06:36:27.110Z,11.83
2023-03-16T06:38:59.028Z,11.40
2023-03-16T06:41:32.546Z,11.57
2023-03-16T06:44:01.313Z,11.83
2023-03-16T06:46:33.122Z,11.83
2023-03-16T06:49:04.354Z,11.30
2023-03-16T06:51:33.105Z,11.67
2023-03-16T06:54:01.655Z,12.20
2023-03-16T06:56:31.826Z,11.93
2023-03-16T06:59:00.415Z,11.87
2023-03-16T07:01:28.962Z,12.13
2023-03-16T07:03:58.856Z,12.17
2023-03-16T07:06:31.370Z,11.90
2023-03-16T07:09:01.422Z,11.20
2023-03-16T07:11:31.335Z,12.17
2023-03-16T07:14:00.402Z,11.10
2023-03-16T07:16:30.817Z,11.30
2023-03-16T07:19:02.665Z,11.10
2023-03-16T07:21:32.197Z,11.30
2023-03-16T07:24:01.629Z,12.30
2023-03-16T07:26:34.301Z,11.90
2023-03-16T07:29:05.056Z,11.20
2023-03-16T07:31:35.125Z,11.57
2023-03-16T07:34:08.824Z,11.83
2023-03-16T07:36:44.812Z,11.70
2023-03-16T07:39:14.424Z,11.87
2023-03-16T07:41:43.955Z,11.00
2023-03-16T07:44:17.696Z,12.00
2023-03-16T07:46:49.788Z,11.80
2023-03-16T07:49:20.214Z,13.00
2023-03-16T07:51:50.133Z,11.87
2023-03-16T07:54:21.564Z,11.90
2023-03-16T07:56:50.096Z,11.60
2023-03-16T07:59:29.261Z,11.87
2023-03-16T08:01:57.890Z,12.03
2023-03-16T08:04:27.772Z,11.60
2023-03-16T08:07:00.335Z,11.73
2023-03-16T08:09:35.984Z,11.60
2023-03-16T08:12:08.573Z,11.10
2023-03-16T08:14:38.487Z,11.20
2023-03-16T08:17:14.013Z,11.20
2023-03-16T08:19:43.954Z,11.00
2023-03-16T08:22:13.040Z,11.03
2023-03-16T08:24:45.417Z,11.80
2023-03-16T08:27:16.114Z,11.37
2023-03-16T08:29:47.997Z,11.47
2023-03-16T08:32:19.419Z,10.90
2023-03-16T08:34:50.140Z,11.07
2023-03-16T08:37:19.349Z,10.80
2023-03-16T08:39:51.511Z,11.17
2023-03-16T08:42:21.170Z,11.20
2023-03-16T08:44:55.450Z,10.80
2023-03-16T08:47:24.632Z,11.00
2023-03-16T08:49:54.527Z,11.27
2023-03-16T08:52:23.773Z,10.90
2023-03-16T08:55:02.362Z,10.70
2023-03-16T08:57:32.832Z,11.23
2023-03-16T09:00:01.430Z,11.00
2023-03-16T09:02:29.860Z,11.17
2023-03-16T09:04:59.567Z,10.70
2023-03-16T09:07:28.302Z,11.70
2023-03-16T09:09:57.152Z,10.73
2023-03-16T09:12:25.461Z,10.93
2023-03-16T09:14:54.336Z,11.00
2023-03-16T09:17:22.628Z,11.07
2023-03-16T09:19:53.197Z,10.70
2023-03-16T09:22:25.255Z,10.43
2023-03-16T09:24:53.628Z,10.60
2023-03-16T09:27:22.541Z,10.73
2023-03-16T09:29:53.077Z,10.67
2023-03-16T09:32:21.758Z,10.23
2023-03-16T09:34:50.668Z,10.73
2023-03-16T09:37:19.078Z,10.87
2023-03-16T09:39:48.724Z,10.50
2023-03-16T09:42:22.621Z,10.30
2023-03-16T09:45:05.546Z,10.60
2023-03-16T09:47:36.173Z,10.40
2023-03-16T09:50:08.568Z,10.80
2023-03-16T09:52:45.825Z,10.30
2023-03-16T09:55:28.394Z,10.83
2023-03-16T09:57:58.890Z,10.83
2023-03-16T10:00:32.791Z,10.40
2023-03-16T10:03:17.742Z,10.47
2023-03-16T10:05:49.251Z,9.93
2023-03-16T10:08:24.389Z,10.60
2023-03-16T10:11:27.022Z,9.60
2023-03-16T10:14:02.568Z,9.67
2023-03-16T10:16:38.675Z,10.00
2023-03-16T10:19:14.562Z,10.40
2023-03-16T10:21:45.058Z,10.37
2023-03-16T10:24:27.283Z,9.60
2023-03-16T10:27:00.569Z,9.83
2023-03-16T10:29:33.947Z,10.00
2023-03-16T10:32:13.626Z,10.30
2023-03-16T10:34:43.928Z,9.80
2023-03-16T10:37:15.690Z,9.70
2023-03-16T10:39:44.038Z,9.70
2023-03-16T10:42:21.410Z,10.13
2023-03-16T10:44:49.835Z,10.40
2023-03-16T10:47:23.308Z,10.03
2023-03-16T10:49:53.419Z,9.93
2023-03-16T10:52:29.297Z,10.10
2023-03-16T10:55:00.477Z,10.03
2023-03-16T10:57:34.668Z,10.13
2023-03-16T11:00:14.357Z,9.50
2023-03-16T11:02:44.071Z,10.27
2023-03-16T11:05:21.440Z,10.37
2023-03-16T11:07:51.099Z,10.43
2023-03-16T11:10:30.383Z,9.60
2023-03-16T11:13:10.120Z,9.90
2023-03-16T11:15:45.602Z,10.20
2023-03-16T11:18:29.658Z,10.13
2023-03-16T11:21:00.537Z,9.60
2023-03-16T11:23:34.230Z,9.93
2023-03-16T11:26:08.720Z,9.83
2023-03-16T11:28:44.427Z,9.80
2023-03-16T11:31:24.452Z,9.67
2023-03-16T11:33:55.550Z,9.70
2023-03-16T11:36:39.473Z,10.47
2023-03-16T11:39:18.261Z,10.17
2023-03-16T11:42:02.510Z,10.20
2023-03-16T11:44:37.728Z,9.93
2023-03-16T11:47:32.018Z,9.87
2023-03-16T11:50:09.319Z,10.20
2023-03-16T11:52:52.536Z,10.00
2023-03-16T11:55:35.209Z,9.73
2023-03-16T11:58:29.847Z,10.40
2023-03-16T12:01:09.709Z,9.77
2023-03-16T12:03:58.435Z,9.77
2023-03-16T12:06:47.106Z,10.10
2023-03-16T12:09:58.567Z,10.07
2023-03-16T12:12:39.060Z,10.17
2023-03-16T12:15:29.737Z,10.30
2023-03-16T12:18:07.759Z,10.83
2023-03-16T12:20:52.981Z,10.63
2023-03-16T12:23:27.915Z,10.10
2023-03-16T12:26:00.868Z,10.30
2023-03-16T12:28:31.903Z,9.80
2023-03-16T12:31:10.366Z,9.67
2023-03-16T12:34:08.336Z,10.07
2023-03-16T12:37:02.133Z,9.90
2023-03-16T12:39:47.948Z,9.53
2023-03-16T12:42:42.486Z,9.50
2023-03-16T12:45:17.771Z,9.80
2023-03-16T12:47:56.421Z,10.23
2023-03-16T12:50:26.276Z,9.50
2023-03-16T12:52:55.869Z,9.20
2023-03-16T12:55:28.321Z,9.90
2023-03-16T12:58:04.001Z,9.40
2023-03-16T13:00:37.468Z,10.23
2023-03-16T13:03:07.843Z,9.40
2023-03-16T13:05:38.741Z,9.77
2023-03-16T13:08:11.930Z,9.50
2023-03-16T13:10:41.101Z,9.50
2023-03-16T13:13:13.102Z,9.80
2023-03-16T13:15:41.930Z,9.27
2023-03-16T13:18:25.492Z,10.13
2023-03-16T13:21:01.801Z,9.60
2023-03-16T13:23:49.692Z,9.40
2023-03-16T13:26:24.968Z,9.70
2023-03-16T13:28:56.792Z,9.40
2023-03-16T13:31:29.599Z,9.50
2023-03-16T13:34:00.390Z,9.37
2023-03-16T13:36:31.905Z,9.27
2023-03-16T13:39:12.211Z,9.53
2023-03-16T13:41:43.210Z,9.80
2023-03-16T13:44:16.305Z,9.80
2023-03-16T13:46:44.631Z,9.03
2023-03-16T13:49:13.721Z,9.90
2023-03-16T13:51:45.189Z,10.00
2023-03-16T13:54:24.628Z,9.67
2023-03-16T13:56:57.367Z,11.30
2023-03-16T13:59:26.834Z,9.60
2023-03-16T14:02:01.914Z,10.03
2023-03-16T14:04:34.032Z,9.53
2023-03-16T14:07:04.868Z,9.50
2023-03-16T14:09:35.996Z,9.93
2023-03-16T14:12:04.807Z,9.60
2023-03-16T14:14:41.305Z,9.57
2023-03-16T14:17:14.017Z,10.30
2023-03-16T14:19:47.197Z,9.53
2023-03-16T14:22:19.968Z,9.80
2023-03-16T14:24:55.203Z,9.83
2023-03-16T14:27:30.800Z,9.30
2023-03-16T14:30:02.966Z,9.87
2023-03-16T14:32:34.294Z,9.50
2023-03-16T14:35:14.097Z,9.47
2023-03-16T14:37:44.997Z,9.10
2023-03-16T14:40:28.563Z,9.43
2023-03-16T14:42:59.759Z,9.50
2023-03-16T14:45:34.854Z,9.63
2023-03-16T14:48:07.398Z,10.40
2023-03-16T14:50:37.200Z,9.53
2023-03-16T14:53:06.998Z,9.50
2023-03-16T14:55:36.374Z,9.70
2023-03-16T14:58:05.458Z,9.23
2023-03-16T15:00:42.790Z,9.60
2023-03-16T15:03:17.774Z,9.50
2023-03-16T15:05:50.269Z,9.60
2023-03-16T15:08:26.389Z,9.30
2023-03-16T15:10:56.237Z,9.30
2023-03-16T15:13:52.648Z,9.27
2023-03-16T15:16:23.124Z,9.30
2023-03-16T15:18:52.292Z,9.80
2023-03-16T15:21:24.552Z,9.53
2023-03-16T15:23:58.564Z,9.30
2023-03-16T15:26:29.890Z,9.80
2023-03-16T15:28:59.529Z,9.57
2023-03-16T15:31:54.487Z,9.60
2023-03-16T15:34:35.614Z,10.20
2023-03-16T15:44:25.921Z,9.97
2023-03-16T15:47:17.566Z,10.20
2023-03-16T15:49:51.797Z,10.40
2023-03-16T15:56:09.602Z,10.37
2023-03-16T15:59:01.853Z,9.97
2023-03-16T16:08:22.410Z,10.10
2023-03-16T16:31:20.539Z,9.70
2023-03-16T16:41:14.106Z,9.60
2023-03-16T16:43:48.821Z,10.27
2023-03-16T16:49:27.207Z,10.83
2023-03-16T16:55:27.963Z,10.87
2023-03-16T16:58:07.798Z,10.20
2023-03-16T17:01:00.615Z,10.53
2023-03-16T17:03:34.633Z,10.83
2023-03-16T17:06:10.887Z,10.47
2023-03-16T17:08:41.129Z,11.07
2023-03-16T17:11:23.976Z,11.00
2023-03-16T17:14:00.596Z,10.30
2023-03-16T17:16:34.132Z,9.83
2023-03-16T17:19:04.515Z,10.60
2023-03-16T17:21:35.351Z,10.70
2023-03-16T17:24:04.972Z,10.80
2023-03-16T17:33:08.537Z,10.27
2023-03-16T17:35:38.313Z,10.00
2023-03-16T17:38:21.266Z,10.00
2023-03-16T17:44:13.134Z,10.20
2023-03-16T17:46:42.128Z,10.20
2023-03-16T17:49:14.517Z,10.37
2023-03-16T17:51:44.160Z,10.03
2023-03-16T17:54:14.077Z,9.90
2023-03-16T17:56:42.688Z,9.77
2023-03-16T17:59:18.230Z,10.60
2023-03-16T18:01:48.383Z,9.73
2023-03-16T18:04:23.272Z,9.73
2023-03-16T18:06:52.896Z,10.10
2023-03-16T18:09:22.767Z,10.40
2023-03-16T18:11:52.911Z,10.77
2023-03-16T18:14:36.382Z,10.63
2023-03-16T18:17:16.314Z,10.10
2023-03-16T18:19:49.110Z,9.93
2023-03-16T18:22:20.314Z,10.40
2023-03-16T18:24:51.574Z,10.60
2023-03-16T18:27:21.291Z,10.30
2023-03-16T18:29:49.933Z,10.57
2023-03-16T18:32:24.918Z,10.73
2023-03-16T18:34:54.757Z,10.10
2023-03-16T18:37:27.453Z,10.07
2023-03-16T18:39:57.710Z,10.23
2023-03-16T18:42:28.884Z,11.10
2023-03-16T18:44:57.564Z,10.33
2023-03-16T18:47:31.635Z,10.27
2023-03-16T18:50:02.369Z,10.00
2023-03-16T18:52:34.391Z,10.33
2023-03-16T18:55:04.739Z,10.10
2023-03-16T18:57:33.781Z,11.33
2023-03-16T19:00:02.975Z,10.53
2023-03-16T19:02:37.482Z,10.70
2023-03-16T19:05:11.978Z,10.30
2023-03-16T19:07:43.849Z,10.10
2023-03-16T19:10:24.294Z,10.67
2023-03-16T19:12:54.045Z,11.33
2023-03-16T19:15:26.824Z,10.70
2023-03-16T19:17:56.575Z,11.13
2023-03-16T19:20:28.608Z,11.40
2023-03-16T19:23:07.601Z,10.43
2023-03-16T19:25:41.800Z,11.70
2023-03-16T19:28:21.435Z,10.60
2023-03-16T19:30:51.274Z,10.47
2023-03-16T19:33:23.246Z,10.40
2023-03-16T19:35:54.049Z,10.67
2023-03-16T19:38:24.251Z,10.57
2023-03-16T19:40:59.210Z,10.40
2023-03-16T19:43:29.358Z,10.70
2023-03-16T19:45:59.417Z,10.80
2023-03-16T19:48:38.851Z,11.33
2023-03-16T19:51:07.829Z,10.70
2023-03-16T19:53:36.706Z,10.27
2023-03-16T19:56:10.398Z,10.43
2023-03-16T19:58:40.556Z,10.43
2023-03-16T20:01:19.411Z,10.37
2023-03-16T20:03:49.347Z,10.00
2023-03-16T20:06:21.822Z,10.93
2023-03-16T20:08:53.333Z,10.37
2023-03-16T20:11:29.672Z,10.97
2023-03-16T20:13:59.823Z,10.10
2023-03-16T20:16:34.806Z,10.47
2023-03-16T20:19:16.450Z,10.60
2023-03-16T20:21:46.763Z,10.63
2023-03-16T20:24:19.390Z,10.23
2023-03-16T20:26:54.431Z,10.63
2023-03-16T20:29:35.220Z,10.07
2023-03-16T20:32:08.662Z,10.67
2023-03-16T20:34:37.900Z,10.87
2023-03-16T20:40:10.557Z,10.20
2023-03-16T20:42:41.725Z,10.20
2023-03-16T20:45:28.334Z,10.73
2023-03-16T20:47:58.111Z,10.83
2023-03-16T20:50:29.725Z,10.20
2023-03-16T20:52:58.647Z,10.33
2023-03-16T20:55:29.809Z,10.97
2023-03-16T20:58:00.058Z,10.30
2023-03-16T21:00:33.358Z,10.10
2023-03-16T21:03:02.790Z,10.30
2023-03-16T21:05:32.209Z,10.10
2023-03-16T21:08:00.855Z,10.93
2023-03-16T21:10:31.011Z,10.10
2023-03-16T21:13:02.088Z,10.30
2023-03-16T21:15:33.982Z,10.03
2023-03-16T21:18:05.180Z,10.63
2023-03-16T21:20:37.005Z,10.60
2023-03-16T21:23:06.696Z,11.93
2023-03-16T21:25:49.183Z,11.57
2023-03-16T21:28:48.368Z,11.77
2023-03-16T21:31:39.095Z,11.63
2023-03-16T21:34:15.224Z,10.50
2023-03-16T21:36:44.548Z,11.63
2023-03-16T21:39:22.729Z,11.03
2023-03-16T21:41:57.852Z,11.13
2023-03-16T21:44:33.932Z,10.90
2023-03-16T21:47:03.146Z,10.73
2023-03-16T21:49:33.167Z,11.80
2023-03-16T21:52:02.679Z,10.57
2023-03-16T21:54:31.730Z,10.87
2023-03-16T21:57:00.786Z,10.57
2023-03-16T21:59:31.913Z,10.80
2023-03-16T22:02:02.529Z,10.83
2023-03-16T22:04:36.054Z,10.50
2023-03-16T22:07:13.422Z,10.97
2023-03-16T22:09:54.091Z,10.83
2023-03-16T23:58:29.669Z,10.73
